Time;durP1;ratioP1;P1;durP2;ratioP2;P2;SDS_P1;SDS_P2;PMS_P1;PMS_P2;Temp;Humidity;BMP_temperature;BMP_pressure;BME280_temperature;BME280_humidity;BME280_pressure;Samples;Min_cycle;Max_cycle;Signal;HPM_P1;HPM_P2
2022/06/30 00:01:02;;;;;;;8.75;5.10;;;;;;;21.13;56.98;100571.33;1763285;80;98765;-62
2022/06/30 00:03:28;;;;;;;7.37;4.28;;;;;;;21.13;56.98;100576.78;1773690;78;26048;-62
2022/06/30 00:05:54;;;;;;;10.10;5.12;;;;;;;21.13;57.08;100584.45;1774414;78;98710;-62
2022/06/30 00:08:21;;;;;;;11.08;4.80;;;;;;;21.15;57.16;100592.00;1777343;78;26391;-64
2022/06/30 00:10:47;;;;;;;8.83;4.17;;;;;;;21.17;57.25;100597.31;1777495;78;99086;-62
2022/06/30 00:13:12;;;;;;;5.60;4.83;;;;;;;21.17;57.30;100609.58;1782640;79;29661;-62
2022/06/30 00:15:38;;;;;;;11.05;4.35;;;;;;;21.19;57.46;100630.75;1781637;78;27169;-62
2022/06/30 00:18:05;;;;;;;8.93;4.40;;;;;;;21.24;57.54;100638.06;1775210;78;98898;-62
2022/06/30 00:20:32;;;;;;;9.70;4.78;;;;;;;21.31;57.55;100647.42;1782532;78;26541;-62
2022/06/30 00:22:59;;;;;;;6.78;3.95;;;;;;;21.32;57.58;100649.16;1774959;79;98820;-62
2022/06/30 00:25:25;;;;;;;8.50;4.75;;;;;;;21.38;57.65;100657.66;1715375;81;27523;-62
2022/06/30 00:27:52;;;;;;;9.55;4.97;;;;;;;21.42;57.66;100662.34;1763875;79;26121;-62
2022/06/30 00:30:18;;;;;;;7.37;4.90;;;;;;;21.44;57.73;100665.80;1767168;79;98704;-62
2022/06/30 00:32:44;;;;;;;7.83;5.08;;;;;;;21.46;57.83;100670.61;1772530;79;26584;-62
2022/06/30 00:35:12;;;;;;;8.45;5.08;;;;;;;21.48;57.88;100682.75;1763693;79;98954;-62
2022/06/30 00:37:39;;;;;;;9.70;5.03;;;;;;;21.49;58.01;100686.70;1763746;79;27468;-64
2022/06/30 00:40:09;;;;;;;9.60;4.85;;;;;;;21.53;58.11;100685.44;1767064;79;25888;-64
2022/06/30 00:42:36;;;;;;;10.20;4.95;;;;;;;21.49;57.79;100664.89;1759265;79;98725;-64
2022/06/30 00:45:02;;;;;;;8.20;4.65;;;;;;;21.49;57.79;100664.89;1763419;80;25785;-63
2022/06/30 00:47:29;;;;;;;6.60;4.53;;;;;;;21.68;58.07;100703.17;1764633;79;98796;-62
2022/06/30 00:49:55;;;;;;;12.13;5.20;;;;;;;21.68;58.07;100703.17;1767997;79;25826;-63
2022/06/30 00:52:24;;;;;;;9.78;5.12;;;;;;;21.71;58.37;100712.45;1768939;79;27182;-62
2022/06/30 00:54:53;;;;;;;12.00;5.75;;;;;;;21.63;58.06;100787.28;1762487;79;98633;-62
2022/06/30 00:57:21;;;;;;;18.27;6.45;;;;;;;21.63;58.06;100787.28;1765332;79;25725;-62
2022/06/30 00:59:50;;;;;;;12.30;6.12;;;;;;;21.30;58.93;100787.47;1761876;79;98833;-63
2022/06/30 01:02:19;;;;;;;10.30;6.45;;;;;;;20.88;59.85;100777.83;1765993;79;27845;-64
2022/06/30 01:04:47;;;;;;;13.62;6.62;;;;;;;20.18;61.24;100734.67;1765533;79;99057;-64
2022/06/30 01:07:16;;;;;;;16.05;7.85;;;;;;;20.05;61.55;100769.31;1760138;79;25807;-65
2022/06/30 01:15:08;;;;;;;14.35;8.23;;;;;;;19.43;63.21;100740.67;1719058;81;28093;-65
2022/06/30 01:17:34;;;;;;;15.53;8.00;;;;;;;19.28;63.78;100719.27;1725319;81;98868;-64
2022/06/30 01:20:00;;;;;;;15.80;8.20;;;;;;;19.17;64.09;100720.60;1725335;81;26120;-64
2022/06/30 01:22:26;;;;;;;14.90;8.80;;;;;;;19.07;64.45;100715.02;1724945;81;25806;-64
2022/06/30 01:24:52;;;;;;;14.55;7.67;;;;;;;18.99;65.01;100716.97;1725859;81;99244;-64
2022/06/30 01:27:19;;;;;;;12.30;9.03;;;;;;;18.99;65.45;100710.67;1721615;81;27507;-64
2022/06/30 01:29:46;;;;;;;14.23;8.18;;;;;;;18.96;65.74;100708.19;1725940;81;98784;-64
2022/06/30 01:32:16;;;;;;;14.47;9.03;;;;;;;18.97;66.04;100693.63;1724285;81;25786;-63
2022/06/30 01:34:42;;;;;;;10.85;7.92;;;;;;;18.89;66.42;100681.99;1728784;81;26392;-64
2022/06/30 01:37:11;;;;;;;13.25;9.33;;;;;;;18.83;66.67;100680.24;1721212;81;98726;-64
2022/06/30 01:39:37;;;;;;;15.60;7.92;;;;;;;18.79;67.25;100674.19;1722315;81;27473;-66
2022/06/30 01:42:04;;;;;;;14.35;8.78;;;;;;;18.77;67.46;100665.29;1725864;81;98893;-66
2022/06/30 01:44:32;;;;;;;10.35;7.65;;;;;;;18.74;67.84;100654.66;1725285;81;26105;-63
2022/06/30 01:46:58;;;;;;;13.15;9.40;;;;;;;18.73;68.20;100651.08;1745996;80;99095;-63
2022/06/30 01:49:24;;;;;;;13.72;8.83;;;;;;;18.75;68.69;100642.33;1744411;80;25885;-65
2022/06/30 01:51:50;;;;;;;15.83;9.30;;;;;;;18.79;68.86;100637.03;1745988;80;27348;-63
2022/06/30 01:54:17;;;;;;;17.45;9.98;;;;;;;18.84;69.13;100633.09;1744858;80;98903;-63
2022/06/30 01:56:43;;;;;;;15.20;9.73;;;;;;;18.87;69.41;100617.91;1762438;79;25837;-65
2022/06/30 01:59:09;;;;;;;13.62;9.40;;;;;;;18.88;69.63;100596.06;1757207;80;99062;-63
2022/06/30 02:01:36;;;;;;;13.25;9.25;;;;;;;18.88;69.78;100574.83;1766928;79;25876;-63
2022/06/30 02:06:50;;;;;;;17.92;11.65;;;;;;;18.89;70.53;100545.33;1763099;79;98158;-63
2022/06/30 02:09:16;;;;;;;17.95;11.60;;;;;;;18.86;71.03;100522.00;1759613;79;25881;-64
2022/06/30 02:11:42;;;;;;;14.10;11.55;;;;;;;18.87;71.33;100503.36;1760687;79;98929;-63
2022/06/30 02:14:08;;;;;;;17.57;13.05;;;;;;;18.87;71.67;100499.77;1762865;79;25786;-63
2022/06/30 02:16:33;;;;;;;22.25;13.88;;;;;;;18.84;72.09;100494.59;1765110;79;27456;-63
2022/06/30 02:19:02;;;;;;;17.80;13.95;;;;;;;18.85;72.43;100491.75;1764854;80;99060;-63
2022/06/30 02:21:27;;;;;;;19.82;13.20;;;;;;;18.85;72.55;100508.54;1764728;79;25829;-63
2022/06/30 02:23:53;;;;;;;16.67;13.80;;;;;;;18.83;72.83;100524.95;1761633;79;99087;-63
2022/06/30 02:26:21;;;;;;;20.52;14.50;;;;;;;18.80;73.05;100531.49;1761470;79;25941;-64
2022/06/30 02:28:47;;;;;;;23.85;15.58;;;;;;;18.79;73.34;100532.97;1760706;79;99382;-65
2022/06/30 02:31:12;;;;;;;18.85;14.28;;;;;;;18.80;73.70;100543.72;1744063;80;27212;-64
2022/06/30 02:33:41;;;;;;;22.30;14.65;;;;;;;18.81;73.84;100556.31;1761478;79;26111;-64
2022/06/30 02:36:08;;;;;;;19.25;15.28;;;;;;;18.85;74.06;100566.44;1763217;80;99127;-64
2022/06/30 02:38:36;;;;;;;17.37;14.68;;;;;;;18.87;74.22;100579.40;1766417;79;25781;-64
2022/06/30 02:41:04;;;;;;;18.15;14.10;;;;;;;18.88;74.42;100583.84;1762986;79;99111;-64
2022/06/30 02:43:30;;;;;;;20.35;14.63;;;;;;;18.92;74.54;100596.20;1761976;79;25803;-65
2022/06/30 02:45:56;;;;;;;19.67;12.15;;;;;;;18.95;74.79;100618.18;1758635;79;26112;-64
2022/06/30 02:48:24;;;;;;;14.13;12.07;;;;;;;18.96;74.79;100634.36;1761769;79;99210;-64
2022/06/30 02:50:50;;;;;;;15.88;12.20;;;;;;;19.00;75.09;100655.36;1774303;78;25694;-65
2022/06/30 02:53:16;;;;;;;18.77;12.73;;;;;;;19.05;75.11;100669.44;1777975;78;99106;-65
2022/06/30 02:55:42;;;;;;;15.88;12.75;;;;;;;19.05;75.35;100680.31;1777978;78;25776;-65
2022/06/30 02:58:10;;;;;;;16.12;13.35;;;;;;;19.06;75.48;100693.77;1777933;78;25795;-65
2022/06/30 03:00:36;;;;;;;19.42;13.55;;;;;;;19.08;75.76;100675.50;1778781;79;99057;-65
2022/06/30 03:03:03;;;;;;;17.32;12.70;;;;;;;19.08;75.74;100644.26;1780327;78;25848;-65
2022/06/30 03:05:29;;;;;;;16.40;13.53;;;;;;;19.07;75.89;100628.95;1775391;78;99285;-64
2022/06/30 03:07:54;;;;;;;16.40;11.33;;;;;;;19.05;76.10;100606.47;1777072;79;27278;-64
2022/06/30 03:10:20;;;;;;;17.30;12.68;;;;;;;19.05;76.32;100613.26;1777470;79;25863;-67
2022/06/30 03:12:46;;;;;;;16.52;12.25;;;;;;;19.02;76.47;100612.64;1780478;78;99025;-65
2022/06/30 03:15:12;;;;;;;17.70;13.93;;;;;;;19.00;76.55;100596.45;1778544;78;25909;-65
2022/06/30 03:17:41;;;;;;;16.57;13.62;;;;;;;19.00;76.75;100592.38;1778253;78;99041;-65
2022/06/30 03:20:11;;;;;;;17.62;14.70;;;;;;;18.99;76.89;100579.79;1778487;79;25865;-65
2022/06/30 03:22:39;;;;;;;19.80;13.90;;;;;;;18.96;76.99;100566.94;1773831;78;25915;-65
2022/06/30 03:25:07;;;;;;;20.15;14.70;;;;;;;18.92;77.33;100557.31;1776291;78;98052;-65
2022/06/30 03:27:33;;;;;;;16.85;13.13;;;;;;;18.92;77.46;100540.52;1777988;78;25824;-65
2022/06/30 03:29:59;;;;;;;16.93;14.10;;;;;;;18.94;77.73;100520.89;1778743;79;99110;-67
2022/06/30 03:32:27;;;;;;;15.60;13.58;;;;;;;18.93;77.81;100510.15;1776861;78;25831;-65
2022/06/30 03:34:54;;;;;;;19.30;14.65;;;;;;;18.92;78.03;100479.90;1774683;78;99186;-67
2022/06/30 03:37:20;;;;;;;19.42;14.30;;;;;;;18.88;78.21;100465.70;1780343;78;26554;-65
2022/06/30 03:39:46;;;;;;;20.45;16.00;;;;;;;18.88;78.43;100467.55;1782270;78;26016;-65
2022/06/30 03:42:14;;;;;;;17.37;14.20;;;;;;;18.88;78.67;100460.27;1780451;78;98989;-65
2022/06/30 03:44:41;;;;;;;16.80;13.22;;;;;;;18.92;78.76;100461.75;1778091;78;25881;-65
2022/06/30 03:47:10;;;;;;;19.62;14.03;;;;;;;18.92;78.77;100469.90;1770244;78;99191;-65
2022/06/30 03:49:35;;;;;;;16.87;14.47;;;;;;;18.92;78.96;100469.90;1776021;79;25852;-65
2022/06/30 03:52:02;;;;;;;16.32;14.45;;;;;;;18.93;79.16;100462.12;1780775;79;25715;-65
2022/06/30 03:54:29;;;;;;;17.67;14.45;;;;;;;18.94;79.25;100448.91;1779266;78;99007;-65
2022/06/30 03:56:56;;;;;;;21.02;15.93;;;;;;;18.93;79.24;100437.67;1774979;78;26456;-65
2022/06/30 03:59:25;;;;;;;18.75;15.78;;;;;;;18.92;79.43;100451.38;1782405;78;99255;-66
2022/06/30 04:01:51;;;;;;;18.67;16.30;;;;;;;18.93;79.57;100453.98;1780062;78;25695;-65
2022/06/30 04:04:16;;;;;;;22.52;16.73;;;;;;;18.95;79.54;100456.07;1778634;78;25709;-65
2022/06/30 04:06:44;;;;;;;18.20;15.93;;;;;;;18.94;79.69;100438.05;1777787;79;99048;-66
2022/06/30 04:09:14;;;;;;;18.25;16.45;;;;;;;18.95;79.74;100397.67;1771595;79;25838;-65
2022/06/30 04:11:41;;;;;;;18.65;15.25;;;;;;;18.92;79.88;100387.06;1771544;79;99260;-65
2022/06/30 04:14:08;;;;;;;17.20;15.05;;;;;;;18.89;80.01;100388.67;1769576;79;25794;-66
2022/06/30 04:16:35;;;;;;;20.80;16.02;;;;;;;18.92;80.23;100391.14;1769586;80;25887;-65
2022/06/30 04:19:01;;;;;;;19.75;17.30;;;;;;;18.94;80.30;100413.60;1766174;80;99204;-65
2022/06/30 04:21:28;;;;;;;20.00;16.73;;;;;;;18.97;80.38;100426.94;1768375;79;25768;-66
2022/06/30 04:23:55;;;;;;;18.02;15.70;;;;;;;19.01;80.45;100422.11;1700392;82;99013;-66
2022/06/30 04:26:23;;;;;;;21.30;17.82;;;;;;;19.03;80.61;100416.92;1702916;82;25867;-68
2022/06/30 04:28:51;;;;;;;20.95;17.00;;;;;;;19.09;80.67;100424.57;1760838;79;99271;-66
2022/06/30 04:34:03;;;;;;;18.02;16.05;;;;;;;19.17;80.84;100432.09;1766384;80;25887;-66
2022/06/30 04:36:31;;;;;;;19.65;16.35;;;;;;;19.21;80.84;100450.36;1766155;79;99008;-66
2022/06/30 04:38:56;;;;;;;17.85;15.95;;;;;;;19.25;81.02;100447.76;1767662;79;25837;-66
2022/06/30 04:41:25;;;;;;;18.90;16.05;;;;;;;19.28;81.04;100451.09;1767682;79;99138;-66
2022/06/30 04:43:56;;;;;;;19.70;16.15;;;;;;;19.30;81.16;100457.27;1768745;80;27378;-66
2022/06/30 04:46:25;;;;;;;21.37;16.73;;;;;;;19.31;81.17;100471.22;1762390;79;25754;-66
2022/06/30 04:48:53;;;;;;;19.23;16.10;;;;;;;19.33;81.24;100475.16;1769318;79;99649;-65
2022/06/30 04:51:23;;;;;;;21.17;16.95;;;;;;;19.35;81.36;100474.05;1769507;79;25778;-66
2022/06/30 04:53:51;;;;;;;19.30;17.30;;;;;;;19.43;81.50;100481.57;1763858;79;99387;-66
2022/06/30 04:56:21;;;;;;;21.62;18.65;;;;;;;19.46;81.45;100482.18;1770298;79;27547;-66
2022/06/30 04:58:48;;;;;;;21.80;17.87;;;;;;;19.48;81.57;100480.69;1768251;79;99200;-66
2022/06/30 05:01:15;;;;;;;24.27;17.12;;;;;;;19.52;81.57;100486.77;1766461;79;25979;-66
2022/06/30 05:03:45;;;;;;;20.20;17.75;;;;;;;19.53;81.55;100483.06;1770292;79;25953;-66
2022/06/30 05:06:12;;;;;;;25.77;18.23;;;;;;;19.54;81.65;100482.94;1765077;80;99361;-66
2022/06/30 05:08:38;;;;;;;22.40;17.20;;;;;;;19.58;81.70;100491.20;1763885;79;27480;-66
2022/06/30 05:11:04;;;;;;;20.05;18.05;;;;;;;19.60;81.71;100487.00;1762251;79;99209;-66
2022/06/30 05:13:31;;;;;;;22.00;18.77;;;;;;;19.63;81.78;100495.77;1766222;79;25745;-68
2022/06/30 05:15:57;;;;;;;22.25;19.85;;;;;;;19.68;81.94;100501.69;1761447;80;25853;-66
2022/06/30 05:18:26;;;;;;;20.55;18.02;;;;;;;19.75;82.05;100509.70;1761857;79;98947;-69
2022/06/30 05:20:54;;;;;;;21.77;19.10;;;;;;;19.81;81.94;100506.09;1766426;79;27427;-65
2022/06/30 05:23:20;;;;;;;19.45;17.23;;;;;;;19.86;82.07;100503.85;1764532;79;99215;-66
2022/06/30 05:28:31;;;;;;;18.48;16.57;;;;;;;19.96;82.15;100508.39;1765617;79;26508;-67
2022/06/30 05:30:59;;;;;;;17.77;15.80;;;;;;;19.96;82.06;100514.33;1764103;79;99005;-66
2022/06/30 05:33:25;;;;;;;16.52;14.80;;;;;;;19.95;82.01;100524.84;1765467;79;27476;-65
2022/06/30 05:35:53;;;;;;;16.73;13.85;;;;;;;19.93;82.08;100522.75;1765788;79;98919;-66
2022/06/30 05:38:21;;;;;;;14.68;12.80;;;;;;;19.91;82.05;100519.29;1766955;79;25878;-65
2022/06/30 05:40:51;;;;;;;17.73;12.55;;;;;;;19.86;82.21;100525.12;1760736;80;99186;-69
2022/06/30 05:43:19;;;;;;;15.25;13.30;;;;;;;19.85;82.11;100528.83;1760061;79;25845;-67
2022/06/30 05:45:53;;;;;;;17.07;13.03;;;;;;;19.84;82.19;100534.39;1761882;79;28267;-68
2022/06/30 05:48:21;;;;;;;16.37;12.98;;;;;;;19.82;82.16;100541.33;1762309;80;98958;-66
2022/06/30 05:50:49;;;;;;;17.82;12.68;;;;;;;19.75;82.07;100534.17;1763119;79;25850;-66
2022/06/30 05:53:16;;;;;;;17.27;13.18;;;;;;;19.74;82.08;100533.80;1763144;79;99206;-65
2022/06/30 05:55:44;;;;;;;21.02;13.98;;;;;;;19.73;82.25;100533.94;1763551;79;25826;-65
2022/06/30 05:58:16;;;;;;;16.75;13.62;;;;;;;19.72;82.23;100527.63;1761607;79;28158;-65
2022/06/30 06:00:42;;;;;;;19.55;13.35;;;;;;;19.74;82.37;100532.94;1761940;79;98889;-65
2022/06/30 06:03:12;;;;;;;15.65;13.48;;;;;;;19.78;82.44;100535.77;1756992;79;25978;-65
2022/06/30 06:05:38;;;;;;;16.35;13.08;;;;;;;19.82;82.42;100537.74;1766661;79;98936;-64
2022/06/30 06:08:08;;;;;;;18.07;13.88;;;;;;;19.82;82.44;100539.97;1771226;79;25767;-65
2022/06/30 06:10:37;;;;;;;15.90;14.18;;;;;;;19.86;82.52;100526.97;1768620;79;25932;-65
2022/06/30 06:13:06;;;;;;;15.93;14.33;;;;;;;19.87;82.40;100523.27;1765990;79;99345;-66
2022/06/30 06:15:34;;;;;;;17.20;15.23;;;;;;;19.87;82.37;100520.54;1765369;79;25865;-67
2022/06/30 06:18:03;;;;;;;20.02;15.25;;;;;;;19.87;82.50;100521.90;1766780;79;99184;-67
2022/06/30 06:20:32;;;;;;;21.68;15.40;;;;;;;19.92;82.60;100521.02;1770685;79;26598;-66
2022/06/30 06:22:58;;;;;;;20.87;17.20;;;;;;;19.96;82.55;100527.92;1763416;79;99718;-66
2022/06/30 06:25:27;;;;;;;19.15;15.08;;;;;;;20.02;82.71;100539.66;1766740;79;25764;-67
2022/06/30 06:30:42;;;;;;;20.27;17.10;;;;;;;20.13;82.75;100547.77;1768960;79;99025;-66
2022/06/30 06:33:10;;;;;;;19.90;15.58;;;;;;;20.18;82.78;100551.47;1768032;79;26443;-70
2022/06/30 06:35:37;;;;;;;16.10;14.30;;;;;;;20.23;82.78;100547.86;1766942;79;99133;-66
2022/06/30 06:38:06;;;;;;;17.02;14.00;;;;;;;20.26;82.82;100545.73;1767422;79;25734;-66
2022/06/30 06:40:32;;;;;;;18.57;13.80;;;;;;;20.32;82.79;100546.58;1763346;79;25838;-67
2022/06/30 06:43:01;;;;;;;17.67;13.85;;;;;;;20.37;82.78;100550.27;1763701;79;98924;-66
2022/06/30 06:45:29;;;;;;;22.65;14.63;;;;;;;20.47;83.08;100542.20;1767943;79;25691;-65
2022/06/30 06:47:56;;;;;;;17.05;13.68;;;;;;;20.47;83.08;100542.20;1766092;80;98915;-68
2022/06/30 06:50:24;;;;;;;17.75;13.35;;;;;;;20.51;82.86;100539.58;1767334;80;25710;-68
2022/06/30 06:52:53;;;;;;;16.95;13.25;;;;;;;20.55;82.82;100539.69;1769203;79;99161;-68
2022/06/30 06:55:21;;;;;;;15.58;12.75;;;;;;;20.46;82.60;100520.05;1765010;80;25900;-68
2022/06/30 06:57:49;;;;;;;16.55;13.25;;;;;;;20.46;82.60;100520.05;1759304;80;25662;-67
2022/06/30 07:00:17;;;;;;;19.65;13.88;;;;;;;20.50;82.78;100515.58;1771547;79;98976;-66
2022/06/30 07:02:43;;;;;;;18.70;14.33;;;;;;;20.67;82.81;100548.15;1769001;80;25736;-66
2022/06/30 07:05:11;;;;;;;18.65;13.80;;;;;;;20.74;82.88;100540.67;1765398;80;99182;-66
2022/06/30 07:07:40;;;;;;;19.32;12.75;;;;;;;20.84;82.92;100547.50;1765558;80;25832;-66
2022/06/30 07:10:09;;;;;;;17.37;13.43;;;;;;;20.85;82.85;100536.97;1766753;80;26141;-66
2022/06/30 07:12:35;;;;;;;17.95;11.80;;;;;;;21.05;82.95;100560.60;1762011;80;99278;-64
2022/06/30 07:15:02;;;;;;;17.80;12.20;;;;;;;21.21;82.95;100555.16;1765785;80;26079;-67
2022/06/30 07:17:29;;;;;;;18.05;12.53;;;;;;;21.34;82.86;100554.45;1767165;80;99725;-65
2022/06/30 07:19:55;;;;;;;14.47;11.97;;;;;;;21.52;82.86;100556.88;1768850;80;27855;-65
2022/06/30 07:22:23;;;;;;;15.13;11.83;;;;;;;21.68;82.80;100556.36;1765589;79;25832;-65
2022/06/30 07:24:49;;;;;;;18.27;11.75;;;;;;;21.86;82.73;100553.31;1763698;79;99372;-65
2022/06/30 07:27:17;;;;;;;18.35;12.15;;;;;;;21.99;82.61;100549.81;1767072;80;25803;-68
2022/06/30 07:29:43;;;;;;;13.85;11.35;;;;;;;22.19;82.59;100559.41;1766176;80;99053;-65
2022/06/30 07:32:11;;;;;;;18.67;11.93;;;;;;;22.38;82.46;100557.19;1767374;80;25812;-65
2022/06/30 07:34:38;;;;;;;13.60;11.43;;;;;;;22.53;82.24;100555.23;1768702;80;25749;-65
2022/06/30 07:37:05;;;;;;;16.00;11.45;;;;;;;22.66;82.17;100552.20;1766689;80;98911;-64
2022/06/30 07:39:33;;;;;;;16.25;10.10;;;;;;;22.76;81.97;100550.31;1766569;79;25738;-64
2022/06/30 07:41:59;;;;;;;12.13;9.83;;;;;;;22.84;81.77;100559.17;1767119;80;98953;-63
2022/06/30 07:44:27;;;;;;;14.20;9.28;;;;;;;22.91;81.69;100555.70;1767613;80;25994;-64
2022/06/30 07:46:52;;;;;;;13.38;10.05;;;;;;;22.98;81.50;100558.70;1765615;79;99027;-64
2022/06/30 07:49:18;;;;;;;16.97;9.50;;;;;;;23.06;81.40;100562.06;1761773;80;29641;-64
2022/06/30 07:51:44;;;;;;;12.20;8.63;;;;;;;23.12;81.19;100550.03;1768703;79;26449;-64
2022/06/30 07:54:10;;;;;;;13.85;9.78;;;;;;;23.19;80.97;100555.76;1762553;79;98953;-64
2022/06/30 07:56:37;;;;;;;13.20;8.93;;;;;;;23.27;80.92;100550.41;1766044;80;25757;-64
2022/06/30 07:59:03;;;;;;;8.90;8.00;;;;;;;23.34;80.71;100555.63;1762462;79;98959;-64
2022/06/30 08:01:29;;;;;;;13.15;9.10;;;;;;;23.36;80.44;100558.20;1768909;80;27462;-64
2022/06/30 08:03:57;;;;;;;10.53;7.53;;;;;;;23.43;80.34;100556.56;1767793;80;26028;-64
2022/06/30 08:06:26;;;;;;;12.07;7.28;;;;;;;23.48;80.09;100559.20;1767185;80;98737;-64
2022/06/30 08:08:52;;;;;;;9.13;6.92;;;;;;;23.53;79.86;100561.48;1768418;80;27863;-65
2022/06/30 08:11:19;;;;;;;20.25;7.75;;;;;;;23.61;79.79;100560.24;1769484;79;98991;-64
2022/06/30 08:13:44;;;;;;;8.13;7.33;;;;;;;23.72;79.61;100557.81;1769903;80;29464;-64
2022/06/30 08:16:12;;;;;;;13.15;7.17;;;;;;;23.80;79.32;100564.23;1767804;80;25781;-66
2022/06/30 08:18:38;;;;;;;9.23;7.47;;;;;;;23.89;79.21;100566.56;1770728;80;98836;-64
2022/06/30 08:21:04;;;;;;;14.23;7.75;;;;;;;24.03;79.02;100566.03;1698262;82;27542;-66
2022/06/30 08:23:30;;;;;;;11.65;8.60;;;;;;;24.15;78.72;100568.90;1703583;81;99002;-64
2022/06/30 08:25:56;;;;;;;10.20;7.62;;;;;;;24.24;78.53;100576.18;1702313;82;26099;-64
2022/06/30 08:28:23;;;;;;;12.63;8.25;;;;;;;24.34;78.36;100569.80;1702559;81;25896;-66
2022/06/30 08:30:50;;;;;;;15.53;8.60;;;;;;;24.40;78.10;100565.92;1725995;81;98794;-64
2022/06/30 08:33:18;;;;;;;8.58;7.83;;;;;;;24.45;77.83;100573.67;1728736;81;25883;-65
2022/06/30 08:35:44;;;;;;;11.78;8.28;;;;;;;24.50;77.67;100574.05;1728526;81;98678;-64
2022/06/30 08:38:11;;;;;;;12.43;8.60;;;;;;;24.58;77.48;100563.16;1733456;81;27480;-64
2022/06/30 08:43:28;;;;;;;10.85;8.68;;;;;;;24.58;76.97;100568.13;1728437;81;99182;-64
2022/06/30 08:45:56;;;;;;;9.33;7.95;;;;;;;24.62;76.85;100561.83;1727211;81;26552;-63
2022/06/30 08:48:22;;;;;;;10.78;8.73;;;;;;;24.67;76.68;100565.46;1723040;81;99002;-64
2022/06/30 08:50:54;;;;;;;15.40;8.10;;;;;;;24.78;76.62;100556.98;1725420;81;28155;-64
2022/06/30 08:53:23;;;;;;;11.28;8.18;;;;;;;24.85;76.39;100557.55;1720112;81;99059;-64
2022/06/30 08:55:52;;;;;;;13.70;8.88;;;;;;;24.97;76.31;100558.69;1719720;81;25853;-64
2022/06/30 08:58:22;;;;;;;10.18;8.83;;;;;;;25.16;76.21;100556.58;1721903;81;25818;-64
2022/06/30 09:00:52;;;;;;;23.98;8.55;;;;;;;25.33;75.96;100560.27;1727365;81;99335;-64
2022/06/30 09:03:18;;;;;;;13.70;9.28;;;;;;;25.40;75.63;100551.73;1714639;81;33218;-64
2022/06/30 09:05:47;;;;;;;13.38;8.35;;;;;;;25.48;75.19;100546.28;1698097;83;98878;-64
2022/06/30 09:08:14;;;;;;;9.95;8.93;;;;;;;25.45;74.82;100535.64;1767466;80;25750;-64
2022/06/30 09:10:53;;;;;;;16.45;9.58;;;;;;;25.48;74.69;100528.45;1743911;80;26434;-63
2022/06/30 09:13:20;;;;;;;12.05;8.55;;;;;;;25.59;74.55;100527.28;1765579;80;99053;-63
2022/06/30 09:15:49;;;;;;;10.82;8.85;;;;;;;25.72;74.39;100526.33;1768154;80;27386;-65
2022/06/30 09:18:26;;;;;;;10.82;8.63;;;;;;;25.87;74.15;100530.66;1766132;79;99166;-64
2022/06/30 09:20:54;;;;;;;14.53;8.70;;;;;;;26.00;73.87;100528.80;1765668;80;25794;-63
2022/06/30 09:23:24;;;;;;;12.60;8.50;;;;;;;26.07;73.58;100527.06;1765731;80;98958;-63
2022/06/30 09:25:54;;;;;;;12.10;8.93;;;;;;;26.14;73.37;100523.98;1763271;80;25742;-65
2022/06/30 09:28:50;;;;;;;11.20;7.92;;;;;;;26.25;73.25;100520.91;1767101;80;30482;-63
2022/06/30 09:31:35;;;;;;;14.93;8.25;;;;;;;26.41;72.94;100511.84;1745596;80;98977;-65
2022/06/30 09:34:21;;;;;;;12.60;8.18;;;;;;;26.47;72.64;100512.02;1764059;80;25779;-63
2022/06/30 09:36:54;;;;;;;15.83;8.55;;;;;;;26.51;72.30;100514.76;1760483;80;98875;-65
2022/06/30 09:39:22;;;;;;;12.28;8.88;;;;;;;26.66;72.09;100509.94;1766161;79;26368;-63
2022/06/30 09:41:50;;;;;;;12.47;8.93;;;;;;;26.79;71.77;100513.02;1766337;80;98922;-63
2022/06/30 09:44:22;;;;;;;10.63;8.18;;;;;;;26.84;71.50;100510.08;1767323;80;27766;-64
2022/06/30 09:47:08;;;;;;;28.17;10.13;;;;;;;26.92;71.13;100517.45;1765471;79;25871;-63
2022/06/30 09:49:45;;;;;;;13.20;9.80;;;;;;;26.91;70.98;100514.36;1759604;80;98794;-63
2022/06/30 09:52:26;;;;;;;16.40;9.78;;;;;;;26.99;70.73;100500.63;1766609;80;25714;-63
2022/06/30 09:55:01;;;;;;;15.32;8.98;;;;;;;27.10;70.54;100491.14;1766334;79;98858;-64
2022/06/30 09:57:38;;;;;;;17.45;10.30;;;;;;;27.27;70.42;100495.55;1768209;80;25733;-63
2022/06/30 10:00:15;;;;;;;10.82;9.10;;;;;;;27.43;70.09;100497.38;1766014;79;99113;-64
2022/06/30 10:02:48;;;;;;;16.45;9.10;;;;;;;27.46;69.80;100500.63;1762026;80;26560;-63
2022/06/30 10:05:18;;;;;;;12.37;9.35;;;;;;;27.50;69.59;100503.88;1766978;80;99104;-63
2022/06/30 10:07:45;;;;;;;12.37;9.13;;;;;;;27.55;69.34;100510.22;1766231;80;27422;-63
2022/06/30 10:10:17;;;;;;;11.90;9.23;;;;;;;27.55;69.02;100505.58;1765617;80;25836;-65
2022/06/30 10:12:45;;;;;;;14.83;9.60;;;;;;;27.59;68.66;100508.83;1765870;80;98933;-65
2022/06/30 10:15:16;;;;;;;18.98;9.98;;;;;;;27.50;68.19;100514.89;1768880;79;26162;-65
2022/06/30 10:17:50;;;;;;;17.70;9.98;;;;;;;27.49;68.23;100513.17;1763620;80;99139;-65
2022/06/30 10:20:16;;;;;;;15.05;8.33;;;;;;;27.56;68.04;100509.19;1766015;80;27602;-64
2022/06/30 10:22:42;;;;;;;13.88;10.50;;;;;;;27.53;67.86;100518.66;1767683;80;25711;-64
2022/06/30 10:25:11;;;;;;;17.42;9.23;;;;;;;27.58;67.83;100512.62;1767022;80;99374;-64
2022/06/30 10:27:37;;;;;;;15.98;9.95;;;;;;;27.59;67.54;100507.45;1764914;79;25838;-64
2022/06/30 10:30:12;;;;;;;14.13;9.25;;;;;;;27.55;67.47;100502.82;1766351;80;98855;-64
2022/06/30 10:32:53;;;;;;;11.60;8.50;;;;;;;27.61;67.33;100494.39;1767858;80;27538;-63
2022/06/30 10:35:50;;;;;;;10.88;9.70;;;;;;;27.71;67.29;100497.78;1763690;80;98949;-64
2022/06/30 10:38:37;;;;;;;12.13;9.80;;;;;;;27.86;67.14;100493.21;1758869;80;25864;-63
2022/06/30 10:41:14;;;;;;;12.43;9.93;;;;;;;27.96;66.94;100494.35;1761917;79;26622;-63
2022/06/30 10:44:09;;;;;;;15.90;9.30;;;;;;;27.95;66.55;100493.49;1767225;80;98609;-64
2022/06/30 10:46:52;;;;;;;13.95;10.40;;;;;;;27.83;65.97;100489.96;1767374;80;27460;-64
2022/06/30 10:49:20;;;;;;;13.35;9.58;;;;;;;27.75;65.96;100496.38;1753198;80;99172;-64
2022/06/30 10:51:46;;;;;;;13.68;11.80;;;;;;;27.68;65.70;100487.13;1766751;80;25851;-64
2022/06/30 10:54:31;;;;;;;11.83;9.58;;;;;;;27.65;65.60;100486.97;1763749;80;98906;-64
2022/06/30 10:56:59;;;;;;;11.55;9.85;;;;;;;27.54;65.27;100494.73;1759371;80;26556;-63
2022/06/30 10:59:41;;;;;;;10.70;9.45;;;;;;;27.42;65.04;100491.53;1761694;79;99349;-64
2022/06/30 11:02:17;;;;;;;17.42;10.60;;;;;;;27.42;65.11;100484.64;1768376;79;25740;-64
2022/06/30 11:04:52;;;;;;;14.78;9.58;;;;;;;27.59;65.22;100486.80;1765894;80;25639;-64
2022/06/30 11:07:25;;;;;;;10.48;9.40;;;;;;;27.79;65.15;100486.19;1749931;80;98867;-63
2022/06/30 11:09:58;;;;;;;13.78;10.45;;;;;;;27.86;64.97;100483.56;1771733;79;25767;-63
2022/06/30 11:12:37;;;;;;;10.40;9.00;;;;;;;27.92;64.96;100485.59;1769465;79;98263;-63
2022/06/30 11:15:04;;;;;;;11.03;9.80;;;;;;;27.95;64.80;100475.59;1766949;80;26097;-64
2022/06/30 11:17:35;;;;;;;10.78;9.23;;;;;;;28.05;64.70;100476.72;1762060;80;99001;-64
2022/06/30 11:20:10;;;;;;;13.18;8.95;;;;;;;28.07;64.25;100476.02;1772344;80;27867;-64
2022/06/30 11:22:38;;;;;;;15.03;8.53;;;;;;;28.12;64.22;100474.95;1772196;80;25875;-64
2022/06/30 11:27:17;;;;;;;11.00;8.50;;;;;;;28.21;64.08;100471.60;1669796;82;99304;-64
2022/06/30 11:27:42;;;;;;;10.82;8.48;;;;;;;28.31;63.82;100468.11;1695641;82;25729;-64
2022/06/30 11:30:13;;;;;;;16.67;8.95;;;;;;;28.39;63.62;100463.90;1710065;81;99226;-64
2022/06/30 11:32:41;;;;;;;10.68;9.03;;;;;;;28.38;63.35;100458.05;1727767;81;26386;-65
2022/06/30 11:35:08;;;;;;;11.03;9.48;;;;;;;28.33;63.06;100460.51;1724761;82;25761;-64
2022/06/30 11:37:34;;;;;;;12.00;8.93;;;;;;;28.25;63.04;100460.58;1727447;81;99314;-64
2022/06/30 11:40:06;;;;;;;10.45;9.13;;;;;;;28.11;62.23;100468.58;1704340;82;26137;-63